In Rescue
 
Open Full Screen Window  High Contrast Mode
Wind Gusting 00 knots
07
July 25, 2021 8:15 AM EDT
Weather Information
Wind Direction
  270 °
Wind Speed
  07 kt (8 mph)
Wind Gust
  00 kt (0 mph)
Altimeter
29.92 in
Visibility
7 SM
Temperature
21° C
70° F
Dewpoint
21° C
70° F
Humidity
100%
1hr Rain Fall
00.00 in.
24hr Rain Fall
00.56 in.
Sky Condition
Clear
VFR

METAR KOZW 251215Z AUTO 27007KT 7SM CLR 21/21 A2992 RMK AO2 T02100209

FAA Disclaimer: The data displayed is for advisory purposes only and is not to be used for flight planning or operations.